createdAt,value
2023-07-15T00:01:37.553Z,86.01
2023-07-15T00:04:12.713Z,85.76
2023-07-15T00:06:41.341Z,85.68
2023-07-15T00:09:10.608Z,85.85
2023-07-15T00:11:43.821Z,85.96
2023-07-15T00:14:20.495Z,86.01
2023-07-15T00:16:48.519Z,86.39
2023-07-15T00:19:18.942Z,86.62
2023-07-15T00:21:48.152Z,86.43
2023-07-15T00:24:16.263Z,86.65
2023-07-15T00:26:45.106Z,86.35
2023-07-15T00:29:13.167Z,86.71
2023-07-15T00:31:41.108Z,86.25
2023-07-15T00:34:09.269Z,86.49
2023-07-15T00:36:36.891Z,86.86
2023-07-15T00:39:06.170Z,87.08
2023-07-15T00:41:36.111Z,87.34
2023-07-15T00:44:04.582Z,87.91
2023-07-15T00:46:50.740Z,87.34
2023-07-15T00:49:25.194Z,87.40
2023-07-15T00:51:59.986Z,87.64
2023-07-15T00:54:29.793Z,87.37
2023-07-15T00:57:01.378Z,87.32
2023-07-15T00:59:31.123Z,87.22
2023-07-15T01:01:59.179Z,87.82
2023-07-15T01:04:27.896Z,87.45
2023-07-15T01:06:56.299Z,87.90
2023-07-15T01:09:26.263Z,88.26
2023-07-15T01:11:54.025Z,88.13
2023-07-15T01:14:21.667Z,88.13
2023-07-15T01:16:50.676Z,87.93
2023-07-15T01:19:20.018Z,88.19
2023-07-15T01:21:51.910Z,87.59
2023-07-15T01:24:23.452Z,87.91
2023-07-15T01:26:59.192Z,87.98
2023-07-15T01:29:27.276Z,87.95
2023-07-15T01:31:54.849Z,88.24
2023-07-15T01:34:22.739Z,87.88
2023-07-15T01:36:50.657Z,88.12
2023-07-15T01:39:18.575Z,88.33
2023-07-15T01:41:46.194Z,87.80
2023-07-15T01:44:15.514Z,87.87
2023-07-15T01:46:43.063Z,88.31
2023-07-15T01:49:10.700Z,88.69
2023-07-15T01:51:38.703Z,88.43
2023-07-15T01:54:06.310Z,88.57
2023-07-15T01:56:33.962Z,88.19
2023-07-15T01:59:01.797Z,88.15
2023-07-15T02:01:29.675Z,88.26
2023-07-15T02:03:57.813Z,88.34
2023-07-15T02:06:25.816Z,88.64
2023-07-15T02:08:53.383Z,88.10
2023-07-15T02:11:21.719Z,88.33
2023-07-15T02:13:51.555Z,88.34
2023-07-15T02:16:20.507Z,87.95
2023-07-15T02:18:49.608Z,88.30
2023-07-15T02:21:17.258Z,89.00
2023-07-15T02:23:44.963Z,89.55
2023-07-15T02:26:13.686Z,90.10
2023-07-15T02:28:41.476Z,89.95
2023-07-15T02:31:09.071Z,90.13
2023-07-15T02:33:36.912Z,90.85
2023-07-15T02:36:05.846Z,90.21
2023-07-15T02:38:33.700Z,89.64
2023-07-15T02:41:03.037Z,89.59
2023-07-15T02:43:30.551Z,89.71
2023-07-15T02:45:58.258Z,89.61
2023-07-15T02:48:26.159Z,90.17
2023-07-15T02:50:57.595Z,90.05
2023-07-15T02:53:25.232Z,90.29
2023-07-15T02:55:53.128Z,90.28
2023-07-15T02:58:20.753Z,89.91
2023-07-15T03:00:51.790Z,89.96
2023-07-15T03:03:21.675Z,89.76
2023-07-15T03:05:50.446Z,89.76
2023-07-15T03:08:18.128Z,90.14
2023-07-15T03:10:46.925Z,90.71
2023-07-15T03:13:14.705Z,90.68
2023-07-15T03:15:43.781Z,90.44
2023-07-15T03:18:12.346Z,90.12
2023-07-15T03:20:40.168Z,90.05
2023-07-15T03:23:07.940Z,90.13
2023-07-15T03:25:36.889Z,90.38
2023-07-15T03:28:04.744Z,91.19
2023-07-15T03:30:32.482Z,91.74
2023-07-15T03:33:00.470Z,91.42
2023-07-15T03:35:28.072Z,91.22
2023-07-15T03:37:55.607Z,91.10
2023-07-15T03:40:23.506Z,90.94
2023-07-15T03:42:51.046Z,91.21
2023-07-15T03:45:18.614Z,92.10
2023-07-15T03:47:46.501Z,92.81
2023-07-15T03:50:14.077Z,92.02
2023-07-15T03:52:41.658Z,91.61
2023-07-15T03:55:09.759Z,91.67
2023-07-15T03:57:37.351Z,91.21
2023-07-15T04:00:16.088Z,91.59
2023-07-15T04:02:50.657Z,91.91
2023-07-15T04:05:18.461Z,92.73
2023-07-15T04:07:47.064Z,93.52
2023-07-15T04:10:15.178Z,93.04
2023-07-15T04:12:42.755Z,92.48
2023-07-15T04:15:10.762Z,92.44
2023-07-15T04:17:38.537Z,92.71
2023-07-15T04:20:15.603Z,93.34
2023-07-15T04:22:44.110Z,93.01
2023-07-15T04:25:16.063Z,93.26
2023-07-15T04:27:44.044Z,93.89
2023-07-15T04:30:12.360Z,94.58
2023-07-15T04:32:40.321Z,94.27
2023-07-15T04:35:08.496Z,94.11
2023-07-15T04:37:36.684Z,94.00
2023-07-15T04:40:05.448Z,93.92
2023-07-15T04:42:33.382Z,93.73
2023-07-15T04:45:00.881Z,93.87
2023-07-15T04:47:28.515Z,94.25
2023-07-15T04:49:56.398Z,94.20
2023-07-15T04:52:23.930Z,94.47
2023-07-15T04:54:51.478Z,94.51
2023-07-15T04:57:20.371Z,94.23
2023-07-15T04:59:49.943Z,94.27
2023-07-15T05:02:17.737Z,94.44
2023-07-15T05:04:45.660Z,94.82
2023-07-15T05:07:13.194Z,94.54
2023-07-15T05:09:41.112Z,94.34
2023-07-15T05:12:11.620Z,94.84
2023-07-15T05:14:39.191Z,95.23
2023-07-15T05:17:08.727Z,95.67
2023-07-15T05:19:37.049Z,95.17
2023-07-15T05:22:05.780Z,94.78
2023-07-15T05:24:33.436Z,95.12
2023-07-15T05:27:02.817Z,94.54
2023-07-15T05:29:30.335Z,93.70
2023-07-15T05:31:57.952Z,92.53
2023-07-15T05:34:25.933Z,90.86
2023-07-15T05:36:53.477Z,90.62
2023-07-15T05:39:23.308Z,91.17
2023-07-15T05:41:51.477Z,90.59
2023-07-15T05:44:19.055Z,90.40
2023-07-15T05:46:46.716Z,87.91
2023-07-15T05:49:14.607Z,86.81
2023-07-15T05:51:42.178Z,87.50
2023-07-15T05:54:09.780Z,87.01
2023-07-15T05:56:37.595Z,87.34
2023-07-15T06:01:32.520Z,86.50
2023-07-15T06:04:00.545Z,85.44
2023-07-15T06:06:28.202Z,84.77
2023-07-15T06:08:55.797Z,84.60
2023-07-15T06:11:23.672Z,83.95
2023-07-15T06:13:51.238Z,83.61
2023-07-15T06:16:19.196Z,83.78
2023-07-15T06:18:47.118Z,83.29
2023-07-15T06:21:14.921Z,81.78
2023-07-15T06:23:42.617Z,81.00
2023-07-15T06:26:10.603Z,80.50
2023-07-15T06:28:38.247Z,80.22
2023-07-15T06:31:09.870Z,79.16
2023-07-15T06:33:38.359Z,78.57
2023-07-15T06:36:07.950Z,77.93
2023-07-15T06:38:35.508Z,77.37
2023-07-15T06:41:03.380Z,76.59
2023-07-15T06:43:31.481Z,75.53
2023-07-15T06:45:59.013Z,74.37
2023-07-15T06:48:26.878Z,73.67
2023-07-15T06:50:54.505Z,72.23
2023-07-15T06:53:22.039Z,71.36
2023-07-15T06:55:53.958Z,69.68
2023-07-15T06:58:26.190Z,69.46
2023-07-15T07:00:54.375Z,68.14
2023-07-15T07:03:21.968Z,67.64
2023-07-15T07:05:49.525Z,66.04
2023-07-15T07:08:17.373Z,64.92
2023-07-15T07:10:45.112Z,65.92
2023-07-15T07:13:12.676Z,65.70
2023-07-15T07:15:40.482Z,65.41
2023-07-15T07:18:08.151Z,65.45
2023-07-15T07:20:35.910Z,65.40
2023-07-15T07:23:03.941Z,65.03
2023-07-15T07:25:31.542Z,64.66
2023-07-15T07:27:59.088Z,64.27
2023-07-15T07:30:28.618Z,63.01
2023-07-15T07:32:56.195Z,63.16
2023-07-15T07:35:23.838Z,62.28
2023-07-15T07:37:51.685Z,60.05
2023-07-15T07:40:19.233Z,61.85
2023-07-15T07:42:46.815Z,61.47
2023-07-15T07:45:16.008Z,61.07
2023-07-15T07:47:43.705Z,61.63
2023-07-15T07:50:11.996Z,61.30
2023-07-15T07:52:39.900Z,61.45
2023-07-15T07:55:07.856Z,61.07
2023-07-15T07:57:35.413Z,59.73
2023-07-15T08:00:03.496Z,59.02
2023-07-15T08:02:32.829Z,59.13
2023-07-15T08:05:00.748Z,58.19
2023-07-15T08:07:28.301Z,59.15
2023-07-15T08:09:55.901Z,58.19
2023-07-15T08:12:23.764Z,58.09
2023-07-15T08:14:51.334Z,57.72
2023-07-15T08:17:19.095Z,58.38
2023-07-15T08:19:46.942Z,57.95
2023-07-15T08:22:14.513Z,56.35
2023-07-15T08:24:42.081Z,56.45
2023-07-15T08:27:09.972Z,56.28
2023-07-15T08:29:37.561Z,55.29
2023-07-15T08:32:05.629Z,54.87
2023-07-15T08:34:34.402Z,56.61
2023-07-15T08:37:01.947Z,54.27
2023-07-15T08:39:29.525Z,53.79
2023-07-15T08:41:59.707Z,54.08
2023-07-15T08:44:27.375Z,55.19
2023-07-15T08:46:56.879Z,52.72
2023-07-15T08:49:27.094Z,55.05
2023-07-15T08:51:55.031Z,54.06
2023-07-15T08:54:22.968Z,55.25
2023-07-15T08:56:50.896Z,55.15
2023-07-15T08:59:19.810Z,52.62
2023-07-15T09:01:47.419Z,52.60
2023-07-15T09:04:15.437Z,53.45
2023-07-15T09:06:43.520Z,52.14
2023-07-15T09:09:13.574Z,51.25
2023-07-15T09:11:43.800Z,53.47
2023-07-15T09:14:18.663Z,52.81
2023-07-15T09:16:46.741Z,51.52
2023-07-15T09:19:14.626Z,50.98
2023-07-15T09:21:56.324Z,52.36
2023-07-15T09:24:24.801Z,52.54
2023-07-15T09:26:58.365Z,51.20
2023-07-15T09:29:26.205Z,53.05
2023-07-15T09:31:55.333Z,52.63
2023-07-15T09:34:25.530Z,52.56
2023-07-15T09:36:54.649Z,50.77
2023-07-15T09:39:24.265Z,51.29
2023-07-15T09:42:03.410Z,50.79
2023-07-15T09:44:49.323Z,50.60
2023-07-15T09:47:16.957Z,50.46
2023-07-15T09:49:44.782Z,51.55
2023-07-15T09:52:15.308Z,50.69
2023-07-15T09:54:43.851Z,49.81
2023-07-15T09:57:17.017Z,49.35
2023-07-15T09:59:49.520Z,49.23
2023-07-15T10:02:42.477Z,48.64
2023-07-15T10:05:14.434Z,49.17
2023-07-15T10:07:42.698Z,48.85
2023-07-15T10:10:10.602Z,48.76
2023-07-15T10:12:39.575Z,48.15
2023-07-15T10:15:08.651Z,49.88
2023-07-15T10:17:38.145Z,48.49
2023-07-15T10:20:16.393Z,48.30
2023-07-15T10:22:45.556Z,48.11
2023-07-15T10:25:16.711Z,46.84
2023-07-15T10:27:44.992Z,46.37
2023-07-15T10:30:17.173Z,47.30
2023-07-15T10:33:04.897Z,45.80
2023-07-15T10:35:34.160Z,45.62
2023-07-15T10:38:22.028Z,44.46
2023-07-15T10:40:49.964Z,44.22
2023-07-15T10:43:22.568Z,45.24
2023-07-15T10:45:54.804Z,44.55
2023-07-15T10:48:23.611Z,44.73
2023-07-15T10:50:55.165Z,46.65
2023-07-15T10:53:28.903Z,47.14
2023-07-15T10:55:59.449Z,47.05
2023-07-15T10:58:28.192Z,48.21
2023-07-15T11:01:14.676Z,45.48
2023-07-15T11:03:43.626Z,44.71
2023-07-15T11:06:13.228Z,43.37
2023-07-15T11:08:42.353Z,44.63
2023-07-15T11:11:11.996Z,45.13
2023-07-15T11:13:42.037Z,46.17
2023-07-15T11:16:10.239Z,45.37
2023-07-15T11:18:37.830Z,45.29
2023-07-15T11:21:06.412Z,44.55
2023-07-15T11:23:34.648Z,45.07
2023-07-15T11:26:11.822Z,43.10
2023-07-15T11:28:52.510Z,45.29
2023-07-15T11:31:23.070Z,44.33
2023-07-15T11:33:54.174Z,42.96
2023-07-15T11:36:21.901Z,43.03
2023-07-15T11:38:49.426Z,42.97
2023-07-15T11:41:19.045Z,41.14
2023-07-15T11:43:46.632Z,43.28
2023-07-15T11:46:17.418Z,42.32
2023-07-15T11:48:47.051Z,43.16
2023-07-15T11:51:14.586Z,43.41
2023-07-15T11:53:45.691Z,43.46
2023-07-15T11:56:33.294Z,41.92
2023-07-15T11:59:01.095Z,41.57
2023-07-15T12:01:29.643Z,41.58
2023-07-15T12:03:57.657Z,42.25
2023-07-15T12:06:27.559Z,42.94
2023-07-15T12:09:11.882Z,42.85
2023-07-15T12:11:40.117Z,42.67
2023-07-15T12:14:11.541Z,43.59
2023-07-15T12:16:40.595Z,44.21
2023-07-15T12:19:13.674Z,42.70
2023-07-15T12:21:41.875Z,42.65
2023-07-15T12:24:09.950Z,43.57
2023-07-15T12:26:37.745Z,42.92
2023-07-15T12:29:05.364Z,41.35
2023-07-15T12:31:33.248Z,41.50
2023-07-15T12:34:00.779Z,41.55
2023-07-15T12:36:28.328Z,42.99
2023-07-15T12:38:56.261Z,42.36
2023-07-15T12:41:23.824Z,42.43
2023-07-15T12:43:51.333Z,41.73
2023-07-15T12:46:19.618Z,41.83
2023-07-15T12:48:50.308Z,42.24
2023-07-15T12:51:18.062Z,40.64
2023-07-15T12:53:45.946Z,41.83
2023-07-15T12:56:15.538Z,40.20
2023-07-15T12:58:43.795Z,41.29
2023-07-15T13:01:11.696Z,40.91
2023-07-15T13:03:39.487Z,41.01
2023-07-15T13:06:07.331Z,42.11
2023-07-15T13:08:38.112Z,39.80
2023-07-15T13:11:06.638Z,39.78
2023-07-15T13:13:34.234Z,40.91
2023-07-15T13:16:02.248Z,39.54
2023-07-15T13:18:29.841Z,39.18
2023-07-15T13:20:57.392Z,38.81
2023-07-15T13:23:25.302Z,40.24
2023-07-15T13:25:52.929Z,39.80
2023-07-15T13:28:20.532Z,39.78
2023-07-15T13:30:48.501Z,40.17
2023-07-15T13:33:16.091Z,40.08
2023-07-15T13:35:43.619Z,39.16
2023-07-15T13:38:11.547Z,39.25
2023-07-15T13:40:39.158Z,39.95
2023-07-15T13:43:06.742Z,40.42
2023-07-15T13:45:34.750Z,41.19
2023-07-15T13:48:02.467Z,40.24
2023-07-15T13:50:30.152Z,39.81
2023-07-15T13:52:58.041Z,38.85
2023-07-15T13:55:25.614Z,40.37
2023-07-15T13:57:53.158Z,39.92
2023-07-15T14:00:20.987Z,39.15
2023-07-15T14:02:48.884Z,42.97
2023-07-15T14:05:16.968Z,40.77
2023-07-15T14:07:45.976Z,39.46
2023-07-15T14:10:13.564Z,39.42
2023-07-15T14:12:41.489Z,39.36
2023-07-15T14:15:10.167Z,38.86
2023-07-15T14:17:37.754Z,39.38
2023-07-15T14:20:06.260Z,39.72
2023-07-15T14:22:47.149Z,40.77
2023-07-15T14:25:17.229Z,38.92
2023-07-15T14:27:45.128Z,38.62
2023-07-15T14:30:13.056Z,37.72
2023-07-15T14:32:40.907Z,40.09
2023-07-15T14:35:08.979Z,40.73
2023-07-15T14:37:36.541Z,40.00
2023-07-15T14:40:06.190Z,40.63
2023-07-15T14:42:33.805Z,39.69
2023-07-15T14:45:01.379Z,39.96
2023-07-15T14:47:29.302Z,42.09
2023-07-15T14:49:56.895Z,41.88
2023-07-15T14:52:24.439Z,41.39
2023-07-15T14:54:52.869Z,40.08
2023-07-15T14:57:20.404Z,39.85
2023-07-15T14:59:47.991Z,40.98
2023-07-15T15:02:15.835Z,40.43
2023-07-15T15:04:43.377Z,40.30
2023-07-15T15:07:10.919Z,39.91
2023-07-15T15:09:38.751Z,40.78
2023-07-15T15:12:07.130Z,40.33
2023-07-15T15:14:36.103Z,39.33
2023-07-15T15:17:05.347Z,40.62
2023-07-15T15:19:32.931Z,40.42
2023-07-15T15:22:00.738Z,40.97
2023-07-15T15:24:29.072Z,41.48
2023-07-15T15:27:00.169Z,40.67
2023-07-15T15:29:28.184Z,41.93
2023-07-15T15:31:56.840Z,41.30
2023-07-15T15:34:24.446Z,41.65
2023-07-15T15:36:52.422Z,41.65
2023-07-15T15:39:20.357Z,41.93
2023-07-15T15:41:47.916Z,41.27
2023-07-15T15:44:15.750Z,40.91
2023-07-15T15:46:43.443Z,41.47
2023-07-15T15:49:11.051Z,41.96
2023-07-15T15:51:39.277Z,42.34
2023-07-15T15:54:08.006Z,43.29
2023-07-15T15:56:35.641Z,44.16
2023-07-15T15:59:03.665Z,43.01
2023-07-15T16:01:31.435Z,42.96
2023-07-15T16:03:59.634Z,43.11
2023-07-15T16:06:27.264Z,42.96
2023-07-15T16:08:55.166Z,43.84
2023-07-15T16:11:23.020Z,42.75
2023-07-15T16:13:50.555Z,42.32
2023-07-15T16:16:18.067Z,41.98
2023-07-15T16:18:45.908Z,43.03
2023-07-15T16:21:13.701Z,45.00
2023-07-15T16:23:41.597Z,45.42
2023-07-15T16:26:09.400Z,45.04
2023-07-15T16:28:36.935Z,45.58
2023-07-15T16:31:04.532Z,46.39
2023-07-15T16:33:32.353Z,45.99
2023-07-15T16:35:59.896Z,46.71
2023-07-15T16:38:27.430Z,45.57
2023-07-15T16:40:55.357Z,45.72
2023-07-15T16:43:24.182Z,45.81
2023-07-15T16:45:52.092Z,46.43
2023-07-15T16:48:20.003Z,46.23
2023-07-15T16:50:47.616Z,46.42
2023-07-15T16:53:15.240Z,46.75
2023-07-15T16:55:43.152Z,46.45
2023-07-15T16:58:10.756Z,46.59
2023-07-15T17:00:38.387Z,48.29
2023-07-15T17:03:06.320Z,49.09
2023-07-15T17:05:33.951Z,48.57
2023-07-15T17:08:01.493Z,49.32
2023-07-15T17:10:29.303Z,49.41
2023-07-15T17:12:56.849Z,49.65
2023-07-15T17:15:24.381Z,50.35
2023-07-15T17:17:52.469Z,49.93
2023-07-15T17:20:20.191Z,50.64
2023-07-15T17:22:47.784Z,50.81
2023-07-15T17:25:15.642Z,50.35
2023-07-15T17:27:43.242Z,51.46
2023-07-15T17:30:11.100Z,51.70
2023-07-15T17:32:39.074Z,52.18
2023-07-15T17:35:07.175Z,52.53
2023-07-15T17:37:34.738Z,52.77
2023-07-15T17:40:02.963Z,53.06
2023-07-15T17:42:30.483Z,53.28
2023-07-15T17:44:58.068Z,53.73
2023-07-15T17:47:25.941Z,53.83
2023-07-15T17:49:53.521Z,54.02
2023-07-15T17:52:21.162Z,53.97
2023-07-15T17:54:49.016Z,53.87
2023-07-15T17:57:16.685Z,54.28
2023-07-15T17:59:44.766Z,54.37
2023-07-15T18:02:13.797Z,54.61
2023-07-15T18:04:50.073Z,54.51
2023-07-15T18:07:17.918Z,54.55
2023-07-15T18:09:47.404Z,54.62
2023-07-15T18:12:15.053Z,54.81
2023-07-15T18:14:42.650Z,55.19
2023-07-15T18:17:10.589Z,55.62
2023-07-15T18:19:38.119Z,55.93
2023-07-15T18:22:06.725Z,55.95
2023-07-15T18:24:34.603Z,56.26
2023-07-15T18:27:02.160Z,57.16
2023-07-15T18:29:29.864Z,57.91
2023-07-15T18:31:57.791Z,58.74
2023-07-15T18:34:25.745Z,59.08
2023-07-15T18:36:53.412Z,60.10
2023-07-15T18:39:21.293Z,60.45
2023-07-15T18:41:48.886Z,60.77
2023-07-15T18:44:16.503Z,61.31
2023-07-15T18:46:44.714Z,61.51
2023-07-15T18:49:12.589Z,61.90
2023-07-15T18:51:40.199Z,62.13
2023-07-15T18:54:08.047Z,62.36
2023-07-15T18:56:36.497Z,62.10
2023-07-15T18:59:04.209Z,62.03
2023-07-15T19:01:32.280Z,62.32
2023-07-15T19:03:59.940Z,62.31
2023-07-15T19:06:27.557Z,62.32
2023-07-15T19:08:55.941Z,62.50
2023-07-15T19:11:25.587Z,62.72
2023-07-15T19:13:53.239Z,63.07
2023-07-15T19:16:21.477Z,62.92
2023-07-15T19:18:49.111Z,63.08
2023-07-15T19:21:17.655Z,64.13
2023-07-15T19:23:45.777Z,65.62
2023-07-15T19:26:13.356Z,66.38
2023-07-15T19:28:40.903Z,66.14
2023-07-15T19:31:08.820Z,66.19
2023-07-15T19:33:38.143Z,66.39
2023-07-15T19:36:05.990Z,66.52
2023-07-15T19:38:34.914Z,66.61
2023-07-15T19:41:02.525Z,67.39
2023-07-15T19:43:30.160Z,68.13
2023-07-15T19:45:58.059Z,68.83
2023-07-15T19:48:25.615Z,69.53
2023-07-15T19:50:53.164Z,69.67
2023-07-15T19:53:21.053Z,70.18
2023-07-15T19:55:48.630Z,69.36
2023-07-15T19:58:16.197Z,68.96
2023-07-15T20:00:45.028Z,68.95
2023-07-15T20:03:13.100Z,69.06
2023-07-15T20:05:40.795Z,69.30
2023-07-15T20:08:08.373Z,69.76
2023-07-15T20:10:36.251Z,69.87
2023-07-15T20:13:04.110Z,70.63
2023-07-15T20:15:31.684Z,71.30
2023-07-15T20:17:59.549Z,72.07
2023-07-15T20:20:27.215Z,71.69
2023-07-15T20:22:54.845Z,71.79
2023-07-15T20:25:23.561Z,72.59
2023-07-15T20:27:51.108Z,72.86
2023-07-15T20:30:18.730Z,72.82
2023-07-15T20:32:46.885Z,72.55
2023-07-15T20:35:16.622Z,72.50
2023-07-15T20:37:44.224Z,72.46
2023-07-15T20:40:12.540Z,72.53
2023-07-15T20:42:40.193Z,72.52
2023-07-15T20:45:08.371Z,72.66
2023-07-15T20:47:44.206Z,73.50
2023-07-15T20:50:12.479Z,74.17
2023-07-15T20:52:40.451Z,73.85
2023-07-15T20:55:09.551Z,73.81
2023-07-15T20:57:37.692Z,73.91
2023-07-15T21:00:06.608Z,74.06
2023-07-15T21:02:34.222Z,73.75
2023-07-15T21:05:01.873Z,73.80
2023-07-15T21:07:29.763Z,73.98
2023-07-15T21:09:57.362Z,73.93
2023-07-15T21:12:26.274Z,73.99
2023-07-15T21:14:54.164Z,74.59
2023-07-15T21:17:21.723Z,74.94
2023-07-15T21:19:50.687Z,75.84
2023-07-15T21:22:18.647Z,76.30
2023-07-15T21:24:46.174Z,76.01
2023-07-15T21:27:13.938Z,75.82
2023-07-15T21:29:43.212Z,75.78
2023-07-15T21:32:10.883Z,75.65
2023-07-15T21:34:38.415Z,75.53
2023-07-15T21:37:06.864Z,75.76
2023-07-15T21:39:34.517Z,75.88
2023-07-15T21:42:02.029Z,76.60
2023-07-15T21:44:29.890Z,76.08
2023-07-15T21:46:57.443Z,75.60
2023-07-15T21:49:24.952Z,76.63
2023-07-15T21:51:52.856Z,77.00
2023-07-15T21:54:20.506Z,76.96
2023-07-15T21:56:48.136Z,77.17
2023-07-15T21:59:15.953Z,77.43
2023-07-15T22:01:43.642Z,77.75
2023-07-15T22:04:11.641Z,78.12
2023-07-15T22:06:39.187Z,78.01
2023-07-15T22:09:06.766Z,77.83
2023-07-15T22:11:34.581Z,78.30
2023-07-15T22:14:03.628Z,78.26
2023-07-15T22:16:31.263Z,77.85
2023-07-15T22:18:59.243Z,77.90
2023-07-15T22:21:26.771Z,77.70
2023-07-15T22:23:54.311Z,77.88
2023-07-15T22:26:22.234Z,78.44
2023-07-15T22:28:49.807Z,78.81
2023-07-15T22:31:17.443Z,79.14
2023-07-15T22:33:45.364Z,79.66
2023-07-15T22:36:13.049Z,79.81
2023-07-15T22:38:40.678Z,80.06
2023-07-15T22:41:08.511Z,80.09
2023-07-15T22:43:36.060Z,80.25
2023-07-15T22:46:03.907Z,80.27
2023-07-15T22:48:31.880Z,80.43
2023-07-15T22:50:59.517Z,81.23
2023-07-15T22:53:27.061Z,81.06
2023-07-15T22:55:55.783Z,80.57
2023-07-15T22:58:23.642Z,81.21
2023-07-15T23:00:56.844Z,81.44
2023-07-15T23:03:25.980Z,81.45
2023-07-15T23:05:53.572Z,81.24
2023-07-15T23:08:21.123Z,81.55
2023-07-15T23:10:49.022Z,82.06
2023-07-15T23:13:16.549Z,82.06
2023-07-15T23:15:44.101Z,82.65
2023-07-15T23:18:11.985Z,82.46
2023-07-15T23:20:39.503Z,82.68
2023-07-15T23:23:16.601Z,82.66
2023-07-15T23:25:46.822Z,83.03
2023-07-15T23:28:15.167Z,82.87
2023-07-15T23:30:49.301Z,83.25
2023-07-15T23:33:17.436Z,83.14
2023-07-15T23:35:45.749Z,83.15
2023-07-15T23:38:13.647Z,83.35
2023-07-15T23:40:41.474Z,83.29
2023-07-15T23:43:13.116Z,84.09
2023-07-15T23:45:41.035Z,83.65
2023-07-15T23:48:08.821Z,83.97
2023-07-15T23:50:36.450Z,83.78
2023-07-15T23:53:04.266Z,83.69
2023-07-15T23:55:31.867Z,83.84
2023-07-15T23:58:01.104Z,84.10
